グラスゴー の空港の天気 - METARとTAF

グラスゴー国際空港 ( EGPF / GLA ) - イギリス グラスゴー
飛行場実況気象(Metar)
観測時間11/24 16:50 GMT (11/24 16:50 UTC)
風向・風速西南西 10m/s
視程4500m
天気現象
全天の4割程度の雲 雲底高度 400m
全天の8割程度の雲 雲底高度 550m
全天の8割程度の雲 雲底高度 670m
気温12℃
湿度82%
気圧1000hPa
METAREGPF 241650Z AUTO 24020KT 4500 RA SCT013/// BKN018/// BKN022/// //////CB 12/09 Q1000
過去の天気等 Google飛行場航空写真 Wunderground天気予報

過去48時間のMETAR

飛行場予報(TAF)
発表時間: 11/24 15:42 GMT (11/24 15:42 UTC)
予報対象時間: 24日15時 GMT ~ 25日12時 GMT
風向・風速南南西 8m/s 瞬間風速 13m/s
視程10km以上
全天の4割程度の雲 雲底高度 760m
24日15時 GMT ~ 24日17時 GMT に徐々に
風向・風速西 4m/s
24日15時 GMT ~ 24日23時 GMT に一時的に
視程6000m
天気現象
全天の8割程度の雲 雲底高度 300m
24日15時 GMT ~ 24日17時 GMT に 確率 40% で一時的に
風向・風速南南西 11m/s 瞬間風速 18m/s
24日15時 GMT ~ 24日22時 GMT に 確率 30% で一時的に
視程3000m
天気現象雨霧雨
全天の8割程度の雲 雲底高度 150m
25日4時 GMT ~ 25日12時 GMT に 確率 30% で一時的に
視程6000m
天気現象しゅう雨
全天の8割程度の雲 雲底高度 430m
TAF AMD EGPF 241542Z 2415/2512 20015G25KT 9999 SCT025
BECMG 2415/2417 26007KT
TEMPO 2415/2423 6000 RA BKN010
PROB40 TEMPO 2415/2417 21022G35KT
PROB30 TEMPO 2415/2422 3000 RADZ BKN005
PROB30 TEMPO 2504/2512 6000 SHRA BKN014